Terminal Aerodrome Forecast
Issued by NWS Mt. Holly, NJ

Current Version | Previous Version | Text Only | Print | Product List | Glossary On
Versions: 1 2 3 4 5 6 7 8 9 10 11 12 13 14 15 16 17 18 19 20 21 22 23 24
000
FTUS41 KPHI 210100 AAA
TAFPHL
TAF AMD
KPHL 210102Z 2101/2206 17007KT P6SM SCT050 BKN120
     FM210400 16005KT P6SM BKN040
     FM211600 19009KT P6SM VCSH SCT040 BKN100
     FM212000 19007KT 6SM -SHRA BKN040=

USA.gov is the U.S. government's official web portal to all federal, state and local government web resources and services.